Time,TemperatureF,DewpointF,PressureIn,WindDirection,WindDirectionDegrees,WindSpeedMPH,WindSpeedGustMPH,Humidity,HourlyPrecipIn,Conditions,Clouds,dailyrainin,SoftwareType,DateUTC
2013-12-03 00:22:00,31.0,30.0,29.90,WSW,257,0.0,0.0,95,0.00,,,0.00,,2013-12-03 05:22:00,
2013-12-03 00:42:00,31.0,30.0,29.90,WSW,257,0.0,0.0,95,0.00,,,0.00,,2013-12-03 05:42:00,
2013-12-03 00:53:00,31.0,30.0,29.90,WSW,257,0.0,0.0,95,0.00,,,0.00,,2013-12-03 05:53:00,
2013-12-03 01:22:00,31.0,30.0,29.90,WSW,257,0.0,1.0,95,0.00,,,0.00,,2013-12-03 06:22:00,
2013-12-03 01:42:00,31.0,30.0,29.90,WSW,257,0.0,0.0,95,0.00,,,0.00,,2013-12-03 06:42:00,
2013-12-03 01:53:00,31.0,30.0,29.89,WSW,257,0.0,0.0,95,0.00,,,0.00,,2013-12-03 06:53:00,
2013-12-03 02:22:00,31.0,30.0,29.90,WSW,257,0.0,0.0,95,0.00,,,0.00,,2013-12-03 07:22:00,
2013-12-03 02:52:00,31.0,30.0,29.91,WSW,257,0.0,0.0,95,0.00,,,0.00,,2013-12-03 07:52:00,
2013-12-03 03:22:00,31.0,30.0,29.91,WSW,257,0.0,0.0,95,0.00,,,0.00,,2013-12-03 08:22:00,
2013-12-03 03:42:00,31.0,30.0,29.91,WSW,257,0.0,1.0,95,0.00,,,0.00,,2013-12-03 08:42:00,
2013-12-03 03:53:00,31.0,30.0,29.92,WSW,257,0.0,0.0,95,0.00,,,0.00,,2013-12-03 08:53:00,
2013-12-03 04:22:00,31.0,30.0,29.91,WSW,257,0.0,0.0,96,0.00,,,0.00,,2013-12-03 09:22:00,
2013-12-03 04:43:00,31.0,30.0,29.91,WSW,257,0.0,3.0,96,0.00,,,0.00,,2013-12-03 09:43:00,
2013-12-03 04:54:00,31.0,30.0,29.91,WSW,257,0.0,1.0,95,0.00,,,0.00,,2013-12-03 09:54:00,
2013-12-03 05:23:00,30.0,29.0,29.91,West,265,0.0,1.0,96,0.00,,,0.00,,2013-12-03 10:23:00,
2013-12-03 08:42:00,30.0,29.0,29.93,West,265,0.0,2.0,96,0.00,,,0.00,,2013-12-03 13:42:00,
2013-12-03 08:52:00,31.0,30.0,29.92,West,265,0.0,0.0,96,0.00,,,0.00,,2013-12-03 13:52:00,
2013-12-03 09:22:00,30.0,29.0,29.92,West,265,0.0,4.0,96,0.00,,,0.00,,2013-12-03 14:22:00,
2013-12-03 09:52:00,31.0,30.0,29.92,West,264,2.0,4.0,96,0.00,,,0.00,,2013-12-03 14:52:00,
2013-12-03 10:22:00,31.0,30.0,29.92,SW,222,0.0,2.0,96,0.00,,,0.00,,2013-12-03 15:22:00,
2013-12-03 10:54:00,31.0,30.0,29.92,SW,222,3.0,4.0,96,0.00,,,0.00,,2013-12-03 15:54:00,
2013-12-03 11:23:00,32.0,31.0,29.91,SW,222,0.0,1.0,96,0.00,,,0.00,,2013-12-03 16:23:00,
2013-12-03 11:52:00,33.0,32.0,29.91,SW,222,1.0,4.0,96,0.00,,,0.00,,2013-12-03 16:52:00,
2013-12-03 12:22:00,33.0,32.0,29.91,South,175,0.0,5.0,95,0.00,,,0.00,,2013-12-03 17:22:00,
2013-12-03 12:53:00,33.0,32.0,29.90,South,184,1.0,5.0,95,0.00,,,0.00,,2013-12-03 17:53:00,
2013-12-03 13:22:00,34.0,33.0,29.89,South,183,0.0,2.0,95,0.00,,,0.00,,2013-12-03 18:22:00,
2013-12-03 13:53:00,34.0,32.0,29.89,SE,134,1.0,4.0,94,0.00,,,0.00,,2013-12-03 18:53:00,
2013-12-03 14:22:00,34.0,32.0,29.89,North,350,0.0,4.0,94,0.00,,,0.00,,2013-12-03 19:22:00,
2013-12-03 14:52:00,34.0,32.0,29.90,North,360,0.0,1.0,93,0.00,,,0.00,,2013-12-03 19:52:00,
2013-12-03 15:22:00,33.0,31.0,29.91,North,9,0.0,5.0,93,0.00,,,0.00,,2013-12-03 20:22:00,
2013-12-03 15:42:00,33.0,31.0,29.91,North,9,0.0,3.0,93,0.00,,,0.00,,2013-12-03 20:42:00,
2013-12-03 15:53:00,33.0,31.0,29.92,North,9,0.0,2.0,93,0.00,,,0.00,,2013-12-03 20:53:00,
2013-12-03 16:22:00,33.0,31.0,29.92,North,9,0.0,0.0,94,0.00,,,0.00,,2013-12-03 21:22:00,
2013-12-03 16:44:00,33.0,31.0,29.93,North,9,0.0,0.0,94,0.00,,,0.00,,2013-12-03 21:44:00,
2013-12-03 16:54:00,33.0,31.0,29.92,North,9,0.0,3.0,94,0.00,,,0.00,,2013-12-03 21:54:00,
2013-12-03 17:23:00,32.0,30.0,29.94,North,9,0.0,0.0,94,0.00,,,0.00,,2013-12-03 22:23:00,
2013-12-03 17:53:00,32.0,30.0,29.94,North,9,0.0,0.0,94,0.00,,,0.00,,2013-12-03 22:53:00,
2013-12-03 18:22:00,32.0,30.0,29.94,North,9,0.0,0.0,94,0.00,,,0.00,,2013-12-03 23:22:00,
2013-12-03 18:42:00,32.0,30.0,29.94,North,9,0.0,0.0,94,0.00,,,0.00,,2013-12-03 23:42:00,
2013-12-03 18:52:00,32.0,31.0,29.95,North,9,0.0,2.0,95,0.00,,,0.00,,2013-12-03 23:52:00,
2013-12-03 19:22:00,32.0,31.0,29.96,North,9,0.0,0.0,95,0.00,,,0.00,,2013-12-04 00:22:00,
2013-12-03 19:52:00,32.0,31.0,29.96,North,9,0.0,0.0,95,0.00,,,0.00,,2013-12-04 00:52:00,
2013-12-03 20:22:00,32.0,31.0,29.96,North,9,0.0,0.0,95,0.00,,,0.00,,2013-12-04 01:22:00,
2013-12-03 20:52:00,32.0,31.0,29.96,North,9,0.0,0.0,95,0.00,,,0.00,,2013-12-04 01:52:00,
2013-12-03 21:22:00,31.0,30.0,29.96,North,9,0.0,0.0,95,0.00,,,0.00,,2013-12-04 02:22:00,
2013-12-03 21:42:00,31.0,30.0,29.95,North,9,0.0,0.0,95,0.00,,,0.00,,2013-12-04 02:42:00,
2013-12-03 21:52:00,31.0,30.0,29.95,North,9,0.0,1.0,95,0.00,,,0.00,,2013-12-04 02:52:00,
2013-12-03 22:22:00,31.0,30.0,29.96,NNE,30,0.0,5.0,95,0.00,,,0.00,,2013-12-04 03:22:00,
2013-12-03 22:54:00,31.0,29.0,29.96,North,349,0.0,5.0,94,0.00,,,0.00,,2013-12-04 03:54:00,
2013-12-03 23:13:00,31.0,29.0,29.97,North,360,2.0,8.0,91,0.00,,,0.00,,2013-12-04 04:13:00,
2013-12-03 23:24:00,32.0,29.0,29.97,North,355,4.0,10.0,87,0.00,,,0.00,,2013-12-04 04:24:00,
2013-12-03 23:52:00,32.0,28.0,29.96,NE,38,0.0,0.0,84,0.00,,,0.00,,2013-12-04 04:52:00,